sensor_id;sensor_type;location;lat;lon;timestamp;P1;durP1;ratioP1;P2;durP2;ratioP2
14817;SDS011;7500;57.698;11.986;2023-03-19T00:00:15;4.60;;;3.70;;
14817;SDS011;7500;57.698;11.986;2023-03-19T00:03:40;4.93;;;4.37;;
14817;SDS011;7500;57.698;11.986;2023-03-19T00:07:06;6.33;;;3.50;;
14817;SDS011;7500;57.698;11.986;2023-03-19T00:10:31;4.30;;;3.40;;
14817;SDS011;7500;57.698;11.986;2023-03-19T00:13:58;4.33;;;3.50;;
14817;SDS011;7500;57.698;11.986;2023-03-19T00:17:25;4.73;;;3.60;;
14817;SDS011;7500;57.698;11.986;2023-03-19T00:20:50;3.40;;;3.10;;
14817;SDS011;7500;57.698;11.986;2023-03-19T00:24:16;4.20;;;3.80;;
14817;SDS011;7500;57.698;11.986;2023-03-19T00:27:41;4.67;;;3.60;;
14817;SDS011;7500;57.698;11.986;2023-03-19T00:31:08;4.67;;;3.97;;
14817;SDS011;7500;57.698;11.986;2023-03-19T00:34:35;7.90;;;5.47;;
14817;SDS011;7500;57.698;11.986;2023-03-19T00:38:00;5.90;;;5.07;;
14817;SDS011;7500;57.698;11.986;2023-03-19T00:41:26;5.70;;;5.00;;
14817;SDS011;7500;57.698;11.986;2023-03-19T00:44:51;4.87;;;4.37;;
14817;SDS011;7500;57.698;11.986;2023-03-19T00:48:17;4.23;;;3.73;;
14817;SDS011;7500;57.698;11.986;2023-03-19T00:51:44;4.77;;;4.13;;
14817;SDS011;7500;57.698;11.986;2023-03-19T00:55:09;3.57;;;3.17;;
14817;SDS011;7500;57.698;11.986;2023-03-19T00:58:35;3.77;;;3.47;;
14817;SDS011;7500;57.698;11.986;2023-03-19T01:02:02;5.13;;;4.00;;
14817;SDS011;7500;57.698;11.986;2023-03-19T01:05:29;4.60;;;4.13;;
14817;SDS011;7500;57.698;11.986;2023-03-19T01:08:56;5.53;;;4.43;;
14817;SDS011;7500;57.698;11.986;2023-03-19T01:12:22;4.43;;;3.83;;
14817;SDS011;7500;57.698;11.986;2023-03-19T01:15:50;7.30;;;4.63;;
14817;SDS011;7500;57.698;11.986;2023-03-19T01:19:16;6.23;;;5.40;;
14817;SDS011;7500;57.698;11.986;2023-03-19T01:22:43;8.17;;;5.57;;
14817;SDS011;7500;57.698;11.986;2023-03-19T01:26:10;7.60;;;5.47;;
14817;SDS011;7500;57.698;11.986;2023-03-19T01:29:36;7.07;;;5.53;;
14817;SDS011;7500;57.698;11.986;2023-03-19T01:33:01;7.07;;;5.20;;
14817;SDS011;7500;57.698;11.986;2023-03-19T01:36:27;7.97;;;5.80;;
14817;SDS011;7500;57.698;11.986;2023-03-19T01:39:53;6.47;;;5.10;;
14817;SDS011;7500;57.698;11.986;2023-03-19T01:43:21;7.20;;;5.57;;
14817;SDS011;7500;57.698;11.986;2023-03-19T01:46:50;10.20;;;6.53;;
14817;SDS011;7500;57.698;11.986;2023-03-19T01:50:20;9.20;;;6.00;;
14817;SDS011;7500;57.698;11.986;2023-03-19T01:53:52;6.70;;;5.00;;
14817;SDS011;7500;57.698;11.986;2023-03-19T01:57:18;7.63;;;5.77;;
14817;SDS011;7500;57.698;11.986;2023-03-19T02:00:45;6.13;;;4.83;;
14817;SDS011;7500;57.698;11.986;2023-03-19T02:04:15;6.07;;;5.03;;
14817;SDS011;7500;57.698;11.986;2023-03-19T02:07:49;7.80;;;5.83;;
14817;SDS011;7500;57.698;11.986;2023-03-19T02:11:17;7.80;;;5.87;;
14817;SDS011;7500;57.698;11.986;2023-03-19T02:14:43;7.77;;;5.73;;
14817;SDS011;7500;57.698;11.986;2023-03-19T02:18:10;10.93;;;6.73;;
14817;SDS011;7500;57.698;11.986;2023-03-19T02:21:38;8.53;;;5.77;;
14817;SDS011;7500;57.698;11.986;2023-03-19T02:25:08;7.50;;;5.60;;
14817;SDS011;7500;57.698;11.986;2023-03-19T02:28:38;9.57;;;6.13;;
14817;SDS011;7500;57.698;11.986;2023-03-19T02:32:05;9.07;;;6.33;;
14817;SDS011;7500;57.698;11.986;2023-03-19T02:35:31;10.30;;;6.90;;
14817;SDS011;7500;57.698;11.986;2023-03-19T02:39:02;10.00;;;6.67;;
14817;SDS011;7500;57.698;11.986;2023-03-19T02:42:33;8.83;;;6.17;;
14817;SDS011;7500;57.698;11.986;2023-03-19T02:45:59;6.77;;;5.47;;
14817;SDS011;7500;57.698;11.986;2023-03-19T02:49:25;9.43;;;6.40;;
14817;SDS011;7500;57.698;11.986;2023-03-19T02:52:50;8.83;;;6.70;;
14817;SDS011;7500;57.698;11.986;2023-03-19T02:56:15;10.60;;;6.03;;
14817;SDS011;7500;57.698;11.986;2023-03-19T02:59:43;8.43;;;5.93;;
14817;SDS011;7500;57.698;11.986;2023-03-19T03:03:09;7.13;;;5.13;;
14817;SDS011;7500;57.698;11.986;2023-03-19T03:06:34;6.90;;;5.23;;
14817;SDS011;7500;57.698;11.986;2023-03-19T03:10:00;7.60;;;5.00;;
14817;SDS011;7500;57.698;11.986;2023-03-19T03:13:26;7.43;;;4.97;;
14817;SDS011;7500;57.698;11.986;2023-03-19T03:16:52;6.13;;;4.40;;
14817;SDS011;7500;57.698;11.986;2023-03-19T03:20:18;6.27;;;4.30;;
14817;SDS011;7500;57.698;11.986;2023-03-19T03:23:45;7.40;;;4.37;;
14817;SDS011;7500;57.698;11.986;2023-03-19T03:27:10;6.50;;;4.27;;
14817;SDS011;7500;57.698;11.986;2023-03-19T03:30:36;7.10;;;4.90;;
14817;SDS011;7500;57.698;11.986;2023-03-19T03:34:03;6.10;;;4.17;;
14817;SDS011;7500;57.698;11.986;2023-03-19T03:37:29;5.57;;;4.27;;
14817;SDS011;7500;57.698;11.986;2023-03-19T03:40:56;5.53;;;4.10;;
14817;SDS011;7500;57.698;11.986;2023-03-19T03:44:22;5.33;;;4.00;;
14817;SDS011;7500;57.698;11.986;2023-03-19T03:47:47;5.40;;;4.10;;
14817;SDS011;7500;57.698;11.986;2023-03-19T03:51:15;5.37;;;3.90;;
14817;SDS011;7500;57.698;11.986;2023-03-19T03:54:40;6.00;;;4.07;;
14817;SDS011;7500;57.698;11.986;2023-03-19T03:58:06;5.47;;;4.07;;
14817;SDS011;7500;57.698;11.986;2023-03-19T04:01:31;5.30;;;4.40;;
14817;SDS011;7500;57.698;11.986;2023-03-19T04:04:57;5.30;;;3.77;;
14817;SDS011;7500;57.698;11.986;2023-03-19T04:08:23;4.57;;;3.73;;
14817;SDS011;7500;57.698;11.986;2023-03-19T04:11:49;4.33;;;3.80;;
14817;SDS011;7500;57.698;11.986;2023-03-19T04:15:14;5.37;;;3.80;;
14817;SDS011;7500;57.698;11.986;2023-03-19T04:18:40;4.43;;;3.77;;
14817;SDS011;7500;57.698;11.986;2023-03-19T04:22:07;5.20;;;3.70;;
14817;SDS011;7500;57.698;11.986;2023-03-19T04:25:34;4.53;;;3.77;;
14817;SDS011;7500;57.698;11.986;2023-03-19T04:28:59;5.50;;;4.40;;
14817;SDS011;7500;57.698;11.986;2023-03-19T04:32:25;4.57;;;3.67;;
14817;SDS011;7500;57.698;11.986;2023-03-19T04:35:51;5.50;;;3.70;;
14817;SDS011;7500;57.698;11.986;2023-03-19T04:39:16;5.80;;;3.90;;
14817;SDS011;7500;57.698;11.986;2023-03-19T04:42:43;5.17;;;4.03;;
14817;SDS011;7500;57.698;11.986;2023-03-19T04:46:09;5.30;;;4.10;;
14817;SDS011;7500;57.698;11.986;2023-03-19T04:49:35;5.50;;;3.50;;
14817;SDS011;7500;57.698;11.986;2023-03-19T04:53:00;5.20;;;3.83;;
14817;SDS011;7500;57.698;11.986;2023-03-19T04:56:26;5.27;;;4.03;;
14817;SDS011;7500;57.698;11.986;2023-03-19T04:59:53;7.90;;;4.57;;
14817;SDS011;7500;57.698;11.986;2023-03-19T05:03:18;5.40;;;3.83;;
14817;SDS011;7500;57.698;11.986;2023-03-19T05:06:44;5.33;;;4.33;;
14817;SDS011;7500;57.698;11.986;2023-03-19T05:10:10;5.57;;;3.93;;
14817;SDS011;7500;57.698;11.986;2023-03-19T05:13:35;4.60;;;3.87;;
14817;SDS011;7500;57.698;11.986;2023-03-19T05:17:02;5.50;;;4.20;;
14817;SDS011;7500;57.698;11.986;2023-03-19T05:20:27;4.87;;;4.10;;
14817;SDS011;7500;57.698;11.986;2023-03-19T05:23:53;5.37;;;3.80;;
14817;SDS011;7500;57.698;11.986;2023-03-19T05:27:18;5.80;;;3.97;;
14817;SDS011;7500;57.698;11.986;2023-03-19T05:30:44;5.80;;;3.83;;
14817;SDS011;7500;57.698;11.986;2023-03-19T05:34:11;4.93;;;3.87;;
14817;SDS011;7500;57.698;11.986;2023-03-19T05:37:37;4.37;;;3.57;;
14817;SDS011;7500;57.698;11.986;2023-03-19T05:41:03;5.27;;;3.60;;
14817;SDS011;7500;57.698;11.986;2023-03-19T05:44:29;3.60;;;3.17;;
14817;SDS011;7500;57.698;11.986;2023-03-19T05:47:54;4.80;;;3.67;;
14817;SDS011;7500;57.698;11.986;2023-03-19T05:51:21;4.80;;;3.33;;
14817;SDS011;7500;57.698;11.986;2023-03-19T05:54:46;5.33;;;3.30;;
14817;SDS011;7500;57.698;11.986;2023-03-19T05:58:11;4.73;;;3.57;;
14817;SDS011;7500;57.698;11.986;2023-03-19T06:01:38;4.30;;;3.90;;
14817;SDS011;7500;57.698;11.986;2023-03-19T06:05:04;5.40;;;3.70;;
14817;SDS011;7500;57.698;11.986;2023-03-19T06:08:31;5.90;;;3.93;;
14817;SDS011;7500;57.698;11.986;2023-03-19T06:11:56;4.93;;;3.50;;
14817;SDS011;7500;57.698;11.986;2023-03-19T06:15:22;5.47;;;3.67;;
14817;SDS011;7500;57.698;11.986;2023-03-19T06:18:47;4.67;;;3.30;;
14817;SDS011;7500;57.698;11.986;2023-03-19T06:22:13;4.53;;;3.67;;
14817;SDS011;7500;57.698;11.986;2023-03-19T06:25:40;4.97;;;3.67;;
14817;SDS011;7500;57.698;11.986;2023-03-19T06:29:06;5.13;;;3.93;;
14817;SDS011;7500;57.698;11.986;2023-03-19T06:32:32;5.63;;;4.20;;
14817;SDS011;7500;57.698;11.986;2023-03-19T06:35:57;4.90;;;3.90;;
14817;SDS011;7500;57.698;11.986;2023-03-19T06:39:23;4.37;;;3.33;;
14817;SDS011;7500;57.698;11.986;2023-03-19T06:42:50;5.07;;;4.10;;
14817;SDS011;7500;57.698;11.986;2023-03-19T06:46:15;4.83;;;3.60;;
14817;SDS011;7500;57.698;11.986;2023-03-19T06:49:41;5.40;;;3.70;;
14817;SDS011;7500;57.698;11.986;2023-03-19T06:53:06;3.70;;;3.20;;
14817;SDS011;7500;57.698;11.986;2023-03-19T06:56:32;5.13;;;3.90;;
14817;SDS011;7500;57.698;11.986;2023-03-19T06:59:59;4.20;;;3.60;;
14817;SDS011;7500;57.698;11.986;2023-03-19T07:03:25;4.93;;;3.60;;
14817;SDS011;7500;57.698;11.986;2023-03-19T07:06:50;5.23;;;3.30;;
14817;SDS011;7500;57.698;11.986;2023-03-19T07:10:16;3.97;;;3.47;;
14817;SDS011;7500;57.698;11.986;2023-03-19T07:13:42;3.20;;;2.90;;
14817;SDS011;7500;57.698;11.986;2023-03-19T07:17:09;4.90;;;2.93;;
14817;SDS011;7500;57.698;11.986;2023-03-19T07:20:35;3.63;;;2.90;;
14817;SDS011;7500;57.698;11.986;2023-03-19T07:24:00;3.80;;;2.57;;
14817;SDS011;7500;57.698;11.986;2023-03-19T07:27:25;3.23;;;2.60;;
14817;SDS011;7500;57.698;11.986;2023-03-19T07:30:51;3.33;;;2.50;;
14817;SDS011;7500;57.698;11.986;2023-03-19T07:34:18;3.87;;;2.73;;
14817;SDS011;7500;57.698;11.986;2023-03-19T07:37:43;3.00;;;2.70;;
14817;SDS011;7500;57.698;11.986;2023-03-19T07:41:09;3.97;;;2.50;;
14817;SDS011;7500;57.698;11.986;2023-03-19T07:44:34;2.77;;;2.27;;
14817;SDS011;7500;57.698;11.986;2023-03-19T07:47:59;3.77;;;2.63;;
14817;SDS011;7500;57.698;11.986;2023-03-19T07:51:26;3.37;;;1.93;;
14817;SDS011;7500;57.698;11.986;2023-03-19T07:54:52;2.63;;;2.20;;
14817;SDS011;7500;57.698;11.986;2023-03-19T07:58:18;2.53;;;2.00;;
14817;SDS011;7500;57.698;11.986;2023-03-19T08:01:43;2.40;;;2.10;;
14817;SDS011;7500;57.698;11.986;2023-03-19T08:05:09;3.67;;;2.03;;
14817;SDS011;7500;57.698;11.986;2023-03-19T08:08:35;2.90;;;2.10;;
14817;SDS011;7500;57.698;11.986;2023-03-19T08:12:01;2.60;;;1.90;;
14817;SDS011;7500;57.698;11.986;2023-03-19T08:15:28;4.50;;;2.33;;
14817;SDS011;7500;57.698;11.986;2023-03-19T08:18:53;2.80;;;2.27;;
14817;SDS011;7500;57.698;11.986;2023-03-19T08:22:19;2.77;;;2.30;;
14817;SDS011;7500;57.698;11.986;2023-03-19T08:25:47;3.23;;;2.20;;
14817;SDS011;7500;57.698;11.986;2023-03-19T08:29:12;3.27;;;2.30;;
14817;SDS011;7500;57.698;11.986;2023-03-19T08:32:38;2.90;;;2.53;;
14817;SDS011;7500;57.698;11.986;2023-03-19T08:36:05;3.00;;;2.33;;
14817;SDS011;7500;57.698;11.986;2023-03-19T08:39:30;2.97;;;2.53;;
14817;SDS011;7500;57.698;11.986;2023-03-19T08:42:57;2.27;;;2.07;;
14817;SDS011;7500;57.698;11.986;2023-03-19T08:46:23;2.93;;;1.97;;
14817;SDS011;7500;57.698;11.986;2023-03-19T08:49:48;2.33;;;2.00;;
14817;SDS011;7500;57.698;11.986;2023-03-19T08:53:17;3.50;;;2.07;;
14817;SDS011;7500;57.698;11.986;2023-03-19T08:56:42;2.10;;;1.70;;
14817;SDS011;7500;57.698;11.986;2023-03-19T09:00:10;2.67;;;2.20;;
14817;SDS011;7500;57.698;11.986;2023-03-19T09:03:37;2.33;;;2.13;;
14817;SDS011;7500;57.698;11.986;2023-03-19T09:07:03;2.73;;;1.97;;
14817;SDS011;7500;57.698;11.986;2023-03-19T09:10:29;2.87;;;2.23;;
14817;SDS011;7500;57.698;11.986;2023-03-19T09:13:55;2.27;;;2.07;;
14817;SDS011;7500;57.698;11.986;2023-03-19T09:17:21;2.67;;;2.10;;
14817;SDS011;7500;57.698;11.986;2023-03-19T09:20:48;2.67;;;2.13;;
14817;SDS011;7500;57.698;11.986;2023-03-19T09:24:14;2.27;;;1.97;;
14817;SDS011;7500;57.698;11.986;2023-03-19T09:27:39;2.40;;;2.20;;
14817;SDS011;7500;57.698;11.986;2023-03-19T09:31:07;4.00;;;2.10;;
14817;SDS011;7500;57.698;11.986;2023-03-19T09:34:34;2.60;;;1.73;;
14817;SDS011;7500;57.698;11.986;2023-03-19T09:38:02;2.13;;;1.80;;
14817;SDS011;7500;57.698;11.986;2023-03-19T09:41:31;2.43;;;1.83;;
14817;SDS011;7500;57.698;11.986;2023-03-19T09:45:11;2.70;;;2.10;;
14817;SDS011;7500;57.698;11.986;2023-03-19T09:48:42;1.93;;;1.80;;
14817;SDS011;7500;57.698;11.986;2023-03-19T09:52:14;1.73;;;1.60;;
14817;SDS011;7500;57.698;11.986;2023-03-19T09:55:47;2.00;;;1.90;;
14817;SDS011;7500;57.698;11.986;2023-03-19T09:59:14;2.10;;;1.90;;
14817;SDS011;7500;57.698;11.986;2023-03-19T10:02:46;3.30;;;2.03;;
14817;SDS011;7500;57.698;11.986;2023-03-19T10:06:27;2.87;;;2.27;;
14817;SDS011;7500;57.698;11.986;2023-03-19T10:13:55;2.43;;;2.23;;
14817;SDS011;7500;57.698;11.986;2023-03-19T10:17:30;2.57;;;2.20;;
14817;SDS011;7500;57.698;11.986;2023-03-19T10:20:59;3.80;;;2.70;;
14817;SDS011;7500;57.698;11.986;2023-03-19T10:24:32;3.33;;;2.73;;
14817;SDS011;7500;57.698;11.986;2023-03-19T10:27:59;3.67;;;2.67;;
14817;SDS011;7500;57.698;11.986;2023-03-19T10:31:34;2.73;;;2.40;;
14817;SDS011;7500;57.698;11.986;2023-03-19T10:35:06;2.83;;;2.50;;
14817;SDS011;7500;57.698;11.986;2023-03-19T10:38:39;3.37;;;2.73;;
14817;SDS011;7500;57.698;11.986;2023-03-19T10:42:12;2.73;;;2.50;;
14817;SDS011;7500;57.698;11.986;2023-03-19T10:45:43;3.53;;;2.80;;
14817;SDS011;7500;57.698;11.986;2023-03-19T10:49:12;3.13;;;2.83;;
14817;SDS011;7500;57.698;11.986;2023-03-19T10:52:41;3.20;;;2.90;;
14817;SDS011;7500;57.698;11.986;2023-03-19T10:56:15;2.77;;;2.50;;
14817;SDS011;7500;57.698;11.986;2023-03-19T10:59:47;3.47;;;2.70;;
14817;SDS011;7500;57.698;11.986;2023-03-19T11:03:28;3.00;;;2.60;;
14817;SDS011;7500;57.698;11.986;2023-03-19T11:07:01;3.27;;;2.83;;
14817;SDS011;7500;57.698;11.986;2023-03-19T11:10:30;4.33;;;3.30;;
14817;SDS011;7500;57.698;11.986;2023-03-19T11:14:07;5.73;;;3.40;;
14817;SDS011;7500;57.698;11.986;2023-03-19T11:17:44;4.00;;;3.60;;
14817;SDS011;7500;57.698;11.986;2023-03-19T11:21:20;3.83;;;3.20;;
14817;SDS011;7500;57.698;11.986;2023-03-19T11:24:50;3.63;;;3.13;;
14817;SDS011;7500;57.698;11.986;2023-03-19T11:28:20;4.07;;;3.40;;
14817;SDS011;7500;57.698;11.986;2023-03-19T11:31:47;4.23;;;3.60;;
14817;SDS011;7500;57.698;11.986;2023-03-19T11:35:37;3.83;;;3.20;;
14817;SDS011;7500;57.698;11.986;2023-03-19T11:39:17;4.27;;;3.87;;
14817;SDS011;7500;57.698;11.986;2023-03-19T11:42:54;3.87;;;3.30;;
14817;SDS011;7500;57.698;11.986;2023-03-19T11:46:35;4.20;;;3.03;;
14817;SDS011;7500;57.698;11.986;2023-03-19T11:50:14;3.73;;;3.20;;
14817;SDS011;7500;57.698;11.986;2023-03-19T11:53:49;4.73;;;3.13;;
14817;SDS011;7500;57.698;11.986;2023-03-19T11:57:27;3.90;;;3.40;;
14817;SDS011;7500;57.698;11.986;2023-03-19T12:01:14;3.77;;;3.37;;
14817;SDS011;7500;57.698;11.986;2023-03-19T12:05:16;4.47;;;2.80;;
14817;SDS011;7500;57.698;11.986;2023-03-19T12:08:49;4.33;;;2.70;;
14817;SDS011;7500;57.698;11.986;2023-03-19T12:12:23;4.60;;;3.17;;
14817;SDS011;7500;57.698;11.986;2023-03-19T12:16:01;3.83;;;3.13;;
14817;SDS011;7500;57.698;11.986;2023-03-19T12:19:46;3.30;;;3.00;;
14817;SDS011;7500;57.698;11.986;2023-03-19T12:23:22;2.97;;;2.63;;
14817;SDS011;7500;57.698;11.986;2023-03-19T12:27:00;4.63;;;2.97;;
14817;SDS011;7500;57.698;11.986;2023-03-19T12:30:37;3.67;;;3.27;;
14817;SDS011;7500;57.698;11.986;2023-03-19T12:34:18;3.67;;;3.37;;
14817;SDS011;7500;57.698;11.986;2023-03-19T12:37:50;3.70;;;3.30;;
14817;SDS011;7500;57.698;11.986;2023-03-19T12:41:20;4.97;;;3.30;;
14817;SDS011;7500;57.698;11.986;2023-03-19T12:44:49;5.70;;;3.40;;
14817;SDS011;7500;57.698;11.986;2023-03-19T12:48:21;4.40;;;3.40;;
14817;SDS011;7500;57.698;11.986;2023-03-19T12:51:52;3.63;;;3.30;;
14817;SDS011;7500;57.698;11.986;2023-03-19T12:55:21;3.90;;;3.40;;
14817;SDS011;7500;57.698;11.986;2023-03-19T12:58:54;5.10;;;3.53;;
14817;SDS011;7500;57.698;11.986;2023-03-19T13:02:24;3.77;;;3.37;;
14817;SDS011;7500;57.698;11.986;2023-03-19T13:06:00;3.50;;;3.20;;
14817;SDS011;7500;57.698;11.986;2023-03-19T13:09:31;3.60;;;3.30;;
14817;SDS011;7500;57.698;11.986;2023-03-19T13:12:59;3.50;;;3.20;;
14817;SDS011;7500;57.698;11.986;2023-03-19T13:16:29;4.90;;;2.90;;
14817;SDS011;7500;57.698;11.986;2023-03-19T13:20:02;3.30;;;2.80;;
14817;SDS011;7500;57.698;11.986;2023-03-19T13:23:40;3.13;;;2.83;;
14817;SDS011;7500;57.698;11.986;2023-03-19T13:27:08;3.40;;;2.87;;
14817;SDS011;7500;57.698;11.986;2023-03-19T13:30:36;4.20;;;3.17;;
14817;SDS011;7500;57.698;11.986;2023-03-19T13:34:03;4.97;;;3.10;;
14817;SDS011;7500;57.698;11.986;2023-03-19T13:37:44;3.97;;;3.53;;
14817;SDS011;7500;57.698;11.986;2023-03-19T13:41:46;4.77;;;3.43;;
14817;SDS011;7500;57.698;11.986;2023-03-19T13:45:33;4.20;;;3.77;;
14817;SDS011;7500;57.698;11.986;2023-03-19T13:49:23;4.53;;;3.40;;
14817;SDS011;7500;57.698;11.986;2023-03-19T13:53:34;4.03;;;3.60;;
14817;SDS011;7500;57.698;11.986;2023-03-19T13:57:04;6.90;;;4.43;;
14817;SDS011;7500;57.698;11.986;2023-03-19T14:00:55;4.70;;;4.20;;
14817;SDS011;7500;57.698;11.986;2023-03-19T14:04:22;5.43;;;3.90;;
14817;SDS011;7500;57.698;11.986;2023-03-19T14:07:53;5.13;;;4.37;;
14817;SDS011;7500;57.698;11.986;2023-03-19T14:11:21;4.80;;;4.30;;
14817;SDS011;7500;57.698;11.986;2023-03-19T14:14:49;5.73;;;4.60;;
14817;SDS011;7500;57.698;11.986;2023-03-19T14:18:16;5.57;;;4.93;;
14817;SDS011;7500;57.698;11.986;2023-03-19T14:21:44;5.17;;;4.40;;
14817;SDS011;7500;57.698;11.986;2023-03-19T14:25:22;6.03;;;3.90;;
14817;SDS011;7500;57.698;11.986;2023-03-19T14:28:54;4.77;;;4.07;;
14817;SDS011;7500;57.698;11.986;2023-03-19T14:32:24;6.30;;;4.23;;
14817;SDS011;7500;57.698;11.986;2023-03-19T14:35:55;5.03;;;4.20;;
14817;SDS011;7500;57.698;11.986;2023-03-19T14:39:27;6.03;;;5.03;;
14817;SDS011;7500;57.698;11.986;2023-03-19T14:42:59;6.90;;;5.10;;
14817;SDS011;7500;57.698;11.986;2023-03-19T14:46:55;7.60;;;5.23;;
14817;SDS011;7500;57.698;11.986;2023-03-19T14:54:43;7.83;;;5.60;;
14817;SDS011;7500;57.698;11.986;2023-03-19T14:58:14;6.57;;;4.93;;
14817;SDS011;7500;57.698;11.986;2023-03-19T15:01:40;7.03;;;5.57;;
14817;SDS011;7500;57.698;11.986;2023-03-19T15:05:11;10.03;;;6.30;;
14817;SDS011;7500;57.698;11.986;2023-03-19T15:08:40;6.80;;;5.17;;
14817;SDS011;7500;57.698;11.986;2023-03-19T15:16:14;10.50;;;6.17;;
14817;SDS011;7500;57.698;11.986;2023-03-19T15:19:44;7.77;;;5.73;;
14817;SDS011;7500;57.698;11.986;2023-03-19T15:23:11;8.00;;;6.07;;
14817;SDS011;7500;57.698;11.986;2023-03-19T15:26:40;8.97;;;6.00;;
14817;SDS011;7500;57.698;11.986;2023-03-19T15:30:19;7.40;;;5.67;;
14817;SDS011;7500;57.698;11.986;2023-03-19T15:33:45;9.73;;;6.03;;
14817;SDS011;7500;57.698;11.986;2023-03-19T15:37:11;6.70;;;5.87;;
14817;SDS011;7500;57.698;11.986;2023-03-19T15:40:39;7.90;;;5.83;;
14817;SDS011;7500;57.698;11.986;2023-03-19T15:44:09;8.33;;;5.83;;
14817;SDS011;7500;57.698;11.986;2023-03-19T15:47:38;7.90;;;6.57;;
14817;SDS011;7500;57.698;11.986;2023-03-19T15:51:08;8.00;;;6.20;;
14817;SDS011;7500;57.698;11.986;2023-03-19T15:54:37;8.30;;;6.03;;
14817;SDS011;7500;57.698;11.986;2023-03-19T15:58:04;8.77;;;7.17;;
14817;SDS011;7500;57.698;11.986;2023-03-19T16:01:30;10.47;;;7.33;;
14817;SDS011;7500;57.698;11.986;2023-03-19T16:04:59;8.97;;;6.70;;
14817;SDS011;7500;57.698;11.986;2023-03-19T16:08:26;9.57;;;7.50;;
14817;SDS011;7500;57.698;11.986;2023-03-19T16:11:57;9.00;;;7.93;;
14817;SDS011;7500;57.698;11.986;2023-03-19T16:15:28;10.70;;;8.17;;
14817;SDS011;7500;57.698;11.986;2023-03-19T16:18:56;10.10;;;8.30;;
14817;SDS011;7500;57.698;11.986;2023-03-19T16:22:28;9.23;;;7.87;;
14817;SDS011;7500;57.698;11.986;2023-03-19T16:25:56;12.40;;;8.67;;
14817;SDS011;7500;57.698;11.986;2023-03-19T16:29:28;10.50;;;8.27;;
14817;SDS011;7500;57.698;11.986;2023-03-19T16:32:57;10.53;;;8.00;;
14817;SDS011;7500;57.698;11.986;2023-03-19T16:36:25;9.87;;;7.70;;
14817;SDS011;7500;57.698;11.986;2023-03-19T16:43:49;9.73;;;7.53;;
14817;SDS011;7500;57.698;11.986;2023-03-19T16:47:16;8.57;;;7.27;;
14817;SDS011;7500;57.698;11.986;2023-03-19T16:50:41;11.33;;;7.73;;
14817;SDS011;7500;57.698;11.986;2023-03-19T16:54:10;9.93;;;6.77;;
14817;SDS011;7500;57.698;11.986;2023-03-19T16:57:43;8.20;;;6.73;;
14817;SDS011;7500;57.698;11.986;2023-03-19T17:01:11;9.30;;;7.20;;
14817;SDS011;7500;57.698;11.986;2023-03-19T17:04:38;9.10;;;6.97;;
14817;SDS011;7500;57.698;11.986;2023-03-19T17:08:03;10.65;;;9.55;;
14817;SDS011;7500;57.698;11.986;2023-03-19T17:11:32;10.07;;;7.83;;
14817;SDS011;7500;57.698;11.986;2023-03-19T17:14:59;9.47;;;8.57;;
14817;SDS011;7500;57.698;11.986;2023-03-19T17:18:27;11.43;;;10.13;;
14817;SDS011;7500;57.698;11.986;2023-03-19T17:21:57;18.07;;;12.40;;
14817;SDS011;7500;57.698;11.986;2023-03-19T17:25:23;23.20;;;17.30;;
14817;SDS011;7500;57.698;11.986;2023-03-19T17:28:52;26.75;;;23.85;;
14817;SDS011;7500;57.698;11.986;2023-03-19T17:32:18;31.47;;;23.63;;
14817;SDS011;7500;57.698;11.986;2023-03-19T17:35:47;30.67;;;23.70;;
14817;SDS011;7500;57.698;11.986;2023-03-19T17:39:14;33.30;;;25.10;;
14817;SDS011;7500;57.698;11.986;2023-03-19T17:42:41;31.90;;;25.63;;
14817;SDS011;7500;57.698;11.986;2023-03-19T17:46:08;33.77;;;25.93;;
14817;SDS011;7500;57.698;11.986;2023-03-19T17:49:35;35.30;;;26.60;;
14817;SDS011;7500;57.698;11.986;2023-03-19T17:53:00;36.03;;;25.87;;
14817;SDS011;7500;57.698;11.986;2023-03-19T17:56:26;35.73;;;25.93;;
14817;SDS011;7500;57.698;11.986;2023-03-19T17:59:51;33.53;;;24.70;;
14817;SDS011;7500;57.698;11.986;2023-03-19T18:03:19;37.27;;;25.00;;
14817;SDS011;7500;57.698;11.986;2023-03-19T18:06:47;35.47;;;26.13;;
14817;SDS011;7500;57.698;11.986;2023-03-19T18:10:15;36.53;;;27.20;;
14817;SDS011;7500;57.698;11.986;2023-03-19T18:13:41;38.17;;;27.43;;
14817;SDS011;7500;57.698;11.986;2023-03-19T18:17:08;36.73;;;25.80;;
14817;SDS011;7500;57.698;11.986;2023-03-19T18:20:39;38.80;;;28.60;;
14817;SDS011;7500;57.698;11.986;2023-03-19T18:24:05;38.97;;;28.00;;
14817;SDS011;7500;57.698;11.986;2023-03-19T18:27:31;38.53;;;28.93;;
14817;SDS011;7500;57.698;11.986;2023-03-19T18:30:56;45.67;;;29.87;;
14817;SDS011;7500;57.698;11.986;2023-03-19T18:34:24;42.23;;;29.97;;
14817;SDS011;7500;57.698;11.986;2023-03-19T18:37:53;49.23;;;33.20;;
14817;SDS011;7500;57.698;11.986;2023-03-19T18:41:20;47.47;;;32.73;;
14817;SDS011;7500;57.698;11.986;2023-03-19T18:44:47;47.23;;;31.87;;
14817;SDS011;7500;57.698;11.986;2023-03-19T18:48:15;48.33;;;34.20;;
14817;SDS011;7500;57.698;11.986;2023-03-19T18:51:45;49.50;;;35.03;;
14817;SDS011;7500;57.698;11.986;2023-03-19T18:55:12;48.77;;;36.17;;
14817;SDS011;7500;57.698;11.986;2023-03-19T18:58:44;52.57;;;36.47;;
14817;SDS011;7500;57.698;11.986;2023-03-19T19:02:21;51.10;;;37.27;;
14817;SDS011;7500;57.698;11.986;2023-03-19T19:05:52;53.33;;;36.83;;
14817;SDS011;7500;57.698;11.986;2023-03-19T19:09:18;49.23;;;36.30;;
14817;SDS011;7500;57.698;11.986;2023-03-19T19:12:46;54.63;;;37.83;;
14817;SDS011;7500;57.698;11.986;2023-03-19T19:16:15;51.27;;;37.17;;
14817;SDS011;7500;57.698;11.986;2023-03-19T19:19:42;55.90;;;38.23;;
14817;SDS011;7500;57.698;11.986;2023-03-19T19:23:08;52.43;;;37.50;;
14817;SDS011;7500;57.698;11.986;2023-03-19T19:26:35;56.80;;;39.60;;
14817;SDS011;7500;57.698;11.986;2023-03-19T19:30:00;60.13;;;40.43;;
14817;SDS011;7500;57.698;11.986;2023-03-19T19:33:27;53.87;;;38.50;;
14817;SDS011;7500;57.698;11.986;2023-03-19T19:36:52;55.77;;;39.10;;
14817;SDS011;7500;57.698;11.986;2023-03-19T19:40:18;56.60;;;38.80;;
14817;SDS011;7500;57.698;11.986;2023-03-19T19:43:48;55.60;;;40.30;;
14817;SDS011;7500;57.698;11.986;2023-03-19T19:47:17;57.87;;;40.17;;
14817;SDS011;7500;57.698;11.986;2023-03-19T19:50:43;58.67;;;38.70;;
14817;SDS011;7500;57.698;11.986;2023-03-19T19:54:09;58.03;;;40.30;;
14817;SDS011;7500;57.698;11.986;2023-03-19T19:57:36;58.83;;;40.33;;
14817;SDS011;7500;57.698;11.986;2023-03-19T20:01:04;59.77;;;41.23;;
14817;SDS011;7500;57.698;11.986;2023-03-19T20:04:38;56.17;;;39.13;;
14817;SDS011;7500;57.698;11.986;2023-03-19T20:08:04;60.13;;;39.70;;
14817;SDS011;7500;57.698;11.986;2023-03-19T20:11:30;57.37;;;41.03;;
14817;SDS011;7500;57.698;11.986;2023-03-19T20:14:57;59.23;;;41.40;;
14817;SDS011;7500;57.698;11.986;2023-03-19T20:18:25;58.20;;;40.73;;
14817;SDS011;7500;57.698;11.986;2023-03-19T20:21:51;60.37;;;41.00;;
14817;SDS011;7500;57.698;11.986;2023-03-19T20:25:20;62.13;;;41.80;;
14817;SDS011;7500;57.698;11.986;2023-03-19T20:28:47;60.40;;;42.93;;
14817;SDS011;7500;57.698;11.986;2023-03-19T20:32:22;61.10;;;42.27;;
14817;SDS011;7500;57.698;11.986;2023-03-19T20:35:50;62.57;;;41.80;;
14817;SDS011;7500;57.698;11.986;2023-03-19T20:39:16;62.60;;;42.23;;
14817;SDS011;7500;57.698;11.986;2023-03-19T20:42:42;64.53;;;43.93;;
14817;SDS011;7500;57.698;11.986;2023-03-19T20:46:09;60.80;;;43.13;;
14817;SDS011;7500;57.698;11.986;2023-03-19T20:49:39;63.77;;;44.27;;
14817;SDS011;7500;57.698;11.986;2023-03-19T20:53:06;66.93;;;45.07;;
14817;SDS011;7500;57.698;11.986;2023-03-19T20:56:32;69.17;;;46.00;;
14817;SDS011;7500;57.698;11.986;2023-03-19T21:00:00;71.43;;;45.80;;
14817;SDS011;7500;57.698;11.986;2023-03-19T21:03:27;68.60;;;45.33;;
14817;SDS011;7500;57.698;11.986;2023-03-19T21:06:53;64.93;;;45.30;;